Time;durP1;ratioP1;P1;durP2;ratioP2;P2;SDS_P1;SDS_P2;PMS_P1;PMS_P2;Temp;Humidity;BMP_temperature;BMP_pressure;BME280_temperature;BME280_humidity;BME280_pressure;Samples;Min_cycle;Max_cycle;Signal;HPM_P1;HPM_P2
2021/11/06 00:01:15;;;;;;;2.35;2.10;;;;;;;;;;5062885;28;20437;-69
2021/11/06 00:03:46;;;;;;;2.72;2.00;;;;;;;;;;5065632;28;20398;-69
2021/11/06 00:06:22;;;;;;;3.35;2.03;;;;;;;;;;5057993;28;20410;-68
2021/11/06 00:08:54;;;;;;;2.60;2.20;;;;;;;;;;5066066;28;20410;-69
2021/11/06 00:11:26;;;;;;;2.60;1.88;;;;;;;;;;5063820;28;20390;-69
2021/11/06 00:14:03;;;;;;;2.90;1.90;;;;;;;;;;5065801;28;20477;-69
2021/11/06 00:16:33;;;;;;;2.90;1.90;;;;;;;;;;5059292;28;20410;-67
2021/11/06 00:19:03;;;;;;;2.42;2.03;;;;;;;;;;5064085;28;20409;-68
2021/11/06 00:21:32;;;;;;;3.03;2.03;;;;;;;;;;5057382;28;20414;-69
2021/11/06 00:24:03;;;;;;;3.38;2.30;;;;;;;;;;5067145;28;20390;-69
2021/11/06 00:26:31;;;;;;;2.63;2.28;;;;;;;;;;5049068;28;20409;-69
2021/11/06 00:29:04;;;;;;;2.63;2.00;;;;;;;;;;5066165;28;20417;-69
2021/11/06 00:31:34;;;;;;;3.40;2.40;;;;;;;;;;5058567;28;20406;-68
2021/11/06 00:34:05;;;;;;;2.78;2.15;;;;;;;;;;5047473;28;20401;-69
2021/11/06 00:36:39;;;;;;;3.13;2.10;;;;;;;;;;5041582;28;20805;-69
2021/11/06 00:39:09;;;;;;;2.87;2.20;;;;;;;;;;5064372;28;20386;-69
2021/11/06 00:41:40;;;;;;;2.80;2.00;;;;;;;;;;5058184;28;20412;-69
2021/11/06 00:44:10;;;;;;;3.85;2.40;;;;;;;;;;5064696;28;21066;-69
2021/11/06 00:46:38;;;;;;;2.47;2.20;;;;;;;;;;5061328;28;20390;-68
2021/11/06 00:49:20;;;;;;;2.63;2.15;;;;;;;;;;5063274;28;21100;-69
2021/11/06 00:51:53;;;;;;;3.50;2.60;;;;;;;;;;5050279;28;20408;-69
2021/11/06 00:54:26;;;;;;;2.87;2.20;;;;;;;;;;5057520;28;20898;-68
2021/11/06 00:56:57;;;;;;;2.92;2.15;;;;;;;;;;5052764;28;20677;-68
2021/11/06 00:59:28;;;;;;;3.20;2.40;;;;;;;;;;5060685;28;20398;-69
2021/11/06 01:02:00;;;;;;;3.58;2.60;;;;;;;;;;5059599;28;20415;-69
2021/11/06 01:04:31;;;;;;;3.25;2.28;;;;;;;;;;5039906;28;20405;-69
2021/11/06 01:07:01;;;;;;;4.28;2.53;;;;;;;;;;5064082;28;20390;-68
2021/11/06 01:09:38;;;;;;;3.58;2.65;;;;;;;;;;5054565;28;20411;-68
2021/11/06 01:12:08;;;;;;;3.30;2.40;;;;;;;;;;5052385;28;20209;-69
2021/11/06 01:14:50;;;;;;;3.00;2.37;;;;;;;;;;5060340;28;20221;-69
2021/11/06 01:17:27;;;;;;;2.80;2.00;;;;;;;;;;5066581;28;20590;-67
2021/11/06 01:19:58;;;;;;;3.70;2.37;;;;;;;;;;5056653;28;20208;-68
2021/11/06 01:22:30;;;;;;;3.17;2.30;;;;;;;;;;5060540;28;20222;-68
2021/11/06 01:25:04;;;;;;;3.03;2.17;;;;;;;;;;5061795;28;20244;-69
2021/11/06 01:27:35;;;;;;;4.07;2.43;;;;;;;;;;5064928;28;20206;-68
2021/11/06 01:30:09;;;;;;;3.60;2.07;;;;;;;;;;5056104;28;20209;-68
2021/11/06 01:32:38;;;;;;;2.17;1.93;;;;;;;;;;5037740;28;20206;-68
2021/11/06 01:35:10;;;;;;;3.20;2.53;;;;;;;;;;5057465;28;20825;-68
2021/11/06 01:37:42;;;;;;;3.27;2.30;;;;;;;;;;5065091;28;20202;-67
2021/11/06 01:40:31;;;;;;;3.83;2.70;;;;;;;;;;5061039;28;20190;-69
2021/11/06 01:43:03;;;;;;;2.97;2.07;;;;;;;;;;5044355;28;20283;-68
2021/11/06 01:45:33;;;;;;;2.93;2.63;;;;;;;;;;5049197;28;20251;-68
2021/11/06 01:48:04;;;;;;;2.70;2.23;;;;;;;;;;5060562;28;20206;-68
2021/11/06 01:50:38;;;;;;;3.57;2.17;;;;;;;;;;5062220;28;20232;-68
2021/11/06 01:53:24;;;;;;;3.30;2.03;;;;;;;;;;5052611;28;20677;-68
2021/11/06 01:55:58;;;;;;;3.30;2.43;;;;;;;;;;5051196;28;20205;-68
2021/11/06 01:58:30;;;;;;;4.60;2.30;;;;;;;;;;5046629;28;20727;-68
2021/11/06 02:01:03;;;;;;;3.23;2.50;;;;;;;;;;5062098;28;20209;-68
2021/11/06 02:03:35;;;;;;;2.93;2.23;;;;;;;;;;5063040;28;20189;-68
2021/11/06 02:06:05;;;;;;;3.37;2.60;;;;;;;;;;5076008;28;20198;-68
2021/11/06 02:08:41;;;;;;;3.97;2.00;;;;;;;;;;5057502;28;20616;-68
2021/11/06 02:11:16;;;;;;;2.73;2.10;;;;;;;;;;5065334;28;20242;-68
2021/11/06 02:13:45;;;;;;;2.87;2.40;;;;;;;;;;5044011;28;20198;-68
2021/11/06 02:16:14;;;;;;;3.70;2.70;;;;;;;;;;5027981;28;20412;-67
2021/11/06 02:18:48;;;;;;;4.90;2.23;;;;;;;;;;5056506;28;20224;-67
2021/11/06 02:21:17;;;;;;;3.40;2.30;;;;;;;;;;5046174;28;20664;-68
2021/11/06 02:23:50;;;;;;;2.93;2.20;;;;;;;;;;5062492;28;20600;-68
2021/11/06 02:26:22;;;;;;;3.30;2.40;;;;;;;;;;5057385;28;20403;-67
2021/11/06 02:29:13;;;;;;;4.33;2.50;;;;;;;;;;5034187;28;20193;-67
2021/11/06 02:31:44;;;;;;;3.03;2.17;;;;;;;;;;5043103;28;20214;-68
2021/11/06 02:34:14;;;;;;;3.00;2.10;;;;;;;;;;5061553;28;20197;-67
2021/11/06 02:36:42;;;;;;;4.00;2.40;;;;;;;;;;5040690;28;20227;-68
2021/11/06 02:39:13;;;;;;;3.67;2.23;;;;;;;;;;5040544;28;20237;-68
2021/11/06 02:41:45;;;;;;;3.50;2.60;;;;;;;;;;5036311;28;20285;-67
2021/11/06 02:44:18;;;;;;;2.73;2.23;;;;;;;;;;5026585;28;20523;-68
2021/11/06 02:46:50;;;;;;;3.17;2.27;;;;;;;;;;5041151;28;20199;-67
2021/11/06 02:49:21;;;;;;;2.90;2.17;;;;;;;;;;5026186;28;20267;-67
2021/11/06 02:51:51;;;;;;;3.10;2.60;;;;;;;;;;5039130;28;20210;-67
2021/11/06 02:54:23;;;;;;;3.80;2.33;;;;;;;;;;5023709;28;20214;-68
2021/11/06 02:56:55;;;;;;;2.87;2.03;;;;;;;;;;5027369;28;20542;-68
2021/11/06 02:59:26;;;;;;;4.40;3.00;;;;;;;;;;5046785;28;20263;-68
2021/11/06 03:02:00;;;;;;;3.50;2.00;;;;;;;;;;5044109;28;20268;-68
2021/11/06 03:04:37;;;;;;;2.70;1.87;;;;;;;;;;5036514;28;20198;-68
2021/11/06 03:07:10;;;;;;;3.57;2.17;;;;;;;;;;5038418;28;20368;-68
2021/11/06 03:09:42;;;;;;;3.63;2.40;;;;;;;;;;5046795;28;20802;-67
2021/11/06 03:12:15;;;;;;;2.30;2.03;;;;;;;;;;5023414;28;20203;-67
2021/11/06 03:14:44;;;;;;;2.60;2.27;;;;;;;;;;5041162;28;20210;-67
2021/11/06 03:17:16;;;;;;;2.47;1.90;;;;;;;;;;5015227;28;20265;-68
2021/11/06 03:19:47;;;;;;;2.23;1.90;;;;;;;;;;5043065;28;20219;-68
2021/11/06 03:22:18;;;;;;;2.53;1.90;;;;;;;;;;5029896;28;20225;-68
2021/11/06 03:24:50;;;;;;;1.90;1.70;;;;;;;;;;5041227;28;20195;-67
2021/11/06 03:27:20;;;;;;;2.70;2.17;;;;;;;;;;5037528;28;20206;-67
2021/11/06 03:30:09;;;;;;;2.38;2.15;;;;;;;;;;5041788;28;20475;-68
2021/11/06 03:32:38;;;;;;;2.33;2.13;;;;;;;;;;5028593;28;20411;-68
2021/11/06 03:35:10;;;;;;;2.50;2.00;;;;;;;;;;5033646;28;20237;-68
2021/11/06 03:37:42;;;;;;;3.57;1.87;;;;;;;;;;5062093;28;20216;-68
2021/11/06 03:40:12;;;;;;;2.80;2.00;;;;;;;;;;5059393;28;20412;-67
2021/11/06 03:42:41;;;;;;;2.80;2.17;;;;;;;;;;5039385;28;20929;-67
2021/11/06 03:45:16;;;;;;;2.70;2.28;;;;;;;;;;5029339;28;20499;-67
2021/11/06 03:47:47;;;;;;;2.83;2.20;;;;;;;;;;5054885;28;20779;-67
2021/11/06 03:50:19;;;;;;;2.60;2.30;;;;;;;;;;5061539;28;20409;-67
2021/11/06 03:52:49;;;;;;;2.53;2.30;;;;;;;;;;5055355;28;20394;-67
2021/11/06 03:55:22;;;;;;;2.47;2.15;;;;;;;;;;5043267;28;20461;-67
2021/11/06 03:57:49;;;;;;;2.47;2.00;;;;;;;;;;5064960;28;20406;-68
2021/11/06 04:00:23;;;;;;;2.88;2.10;;;;;;;;;;5060593;28;20405;-67
2021/11/06 04:02:53;;;;;;;3.45;2.33;;;;;;;;;;5047467;28;20409;-67
2021/11/06 04:05:24;;;;;;;2.70;2.03;;;;;;;;;;5060243;28;20859;-67
2021/11/06 04:08:00;;;;;;;2.40;2.20;;;;;;;;;;5057518;28;20430;-67
2021/11/06 04:10:32;;;;;;;2.03;1.83;;;;;;;;;;5062196;28;20394;-67
2021/11/06 04:13:13;;;;;;;2.40;2.20;;;;;;;;;;5066102;28;20436;-67
2021/11/06 04:15:47;;;;;;;2.30;1.95;;;;;;;;;;5056407;28;20398;-67
2021/11/06 04:18:18;;;;;;;2.65;2.15;;;;;;;;;;5058222;28;20915;-67
2021/11/06 04:20:52;;;;;;;2.30;2.00;;;;;;;;;;5056871;28;20382;-67
2021/11/06 04:23:22;;;;;;;2.50;1.92;;;;;;;;;;5049427;28;20412;-67
2021/11/06 04:25:57;;;;;;;2.50;2.13;;;;;;;;;;5052397;28;20426;-67
2021/11/06 04:28:26;;;;;;;2.63;2.30;;;;;;;;;;5055874;28;20397;-67
2021/11/06 04:30:58;;;;;;;2.67;2.13;;;;;;;;;;5064626;28;20497;-67
2021/11/06 04:33:26;;;;;;;2.50;2.20;;;;;;;;;;5061501;28;20394;-67
2021/11/06 04:35:59;;;;;;;2.70;2.40;;;;;;;;;;5063377;28;20406;-67
2021/11/06 04:38:32;;;;;;;3.63;3.33;;;;;;;;;;5056575;28;20406;-67
2021/11/06 04:41:05;;;;;;;3.05;2.80;;;;;;;;;;5062803;28;20400;-67
2021/11/06 04:43:36;;;;;;;2.60;2.17;;;;;;;;;;5054048;28;20451;-68
2021/11/06 04:46:19;;;;;;;2.78;2.50;;;;;;;;;;5060650;28;20924;-68
2021/11/06 04:48:48;;;;;;;2.90;2.70;;;;;;;;;;5059837;28;20491;-68
2021/11/06 04:51:20;;;;;;;2.83;2.33;;;;;;;;;;5060289;28;20394;-67
2021/11/06 04:53:50;;;;;;;2.53;2.23;;;;;;;;;;5045358;28;20398;-67
2021/11/06 04:56:20;;;;;;;2.83;1.75;;;;;;;;;;5040884;28;20879;-68
2021/11/06 04:58:52;;;;;;;3.13;2.00;;;;;;;;;;5063559;28;20398;-68
2021/11/06 05:01:21;;;;;;;2.47;2.13;;;;;;;;;;5057371;28;20396;-68
2021/11/06 05:03:55;;;;;;;2.58;2.28;;;;;;;;;;5051006;28;20502;-68
2021/11/06 05:06:27;;;;;;;2.40;2.20;;;;;;;;;;5052287;28;20765;-67
2021/11/06 05:09:01;;;;;;;3.13;1.90;;;;;;;;;;5065216;28;20449;-67
2021/11/06 05:11:29;;;;;;;2.60;2.28;;;;;;;;;;5056905;28;20485;-68
2021/11/06 05:14:00;;;;;;;2.55;2.10;;;;;;;;;;5050000;28;20820;-67
2021/11/06 05:16:35;;;;;;;2.70;2.13;;;;;;;;;;5038692;28;20435;-68
2021/11/06 05:19:07;;;;;;;2.47;2.13;;;;;;;;;;5063534;28;20493;-67
2021/11/06 05:21:41;;;;;;;2.73;1.97;;;;;;;;;;5041934;28;20825;-68
2021/11/06 05:24:14;;;;;;;1.90;1.70;;;;;;;;;;5063649;28;20217;-68
2021/11/06 05:26:54;;;;;;;2.17;1.73;;;;;;;;;;5062475;28;20213;-67
2021/11/06 05:29:29;;;;;;;2.77;1.80;;;;;;;;;;5065174;28;20205;-68
2021/11/06 05:32:00;;;;;;;2.43;2.07;;;;;;;;;;5039843;28;20210;-68
2021/11/06 05:34:32;;;;;;;2.13;1.93;;;;;;;;;;5054709;28;20194;-68
2021/11/06 05:37:00;;;;;;;3.40;2.17;;;;;;;;;;5060020;28;20227;-68
2021/11/06 05:39:32;;;;;;;3.03;1.93;;;;;;;;;;5060404;28;20210;-67
2021/11/06 05:42:04;;;;;;;2.10;1.90;;;;;;;;;;5065567;28;20553;-67
2021/11/06 05:44:34;;;;;;;2.33;2.00;;;;;;;;;;5051074;28;20412;-68
2021/11/06 05:47:06;;;;;;;11.43;1.77;;;;;;;;;;5060433;28;20829;-68
2021/11/06 05:49:37;;;;;;;2.13;1.90;;;;;;;;;;5055035;28;20210;-67
2021/11/06 05:52:13;;;;;;;2.53;2.03;;;;;;;;;;5063478;28;20231;-67
2021/11/06 05:54:44;;;;;;;2.70;2.00;;;;;;;;;;5056627;28;20213;-68
2021/11/06 05:57:17;;;;;;;2.43;2.00;;;;;;;;;;5067098;28;20189;-68
2021/11/06 05:59:49;;;;;;;2.70;1.93;;;;;;;;;;5059344;28;20241;-68
2021/11/06 06:02:22;;;;;;;3.47;2.00;;;;;;;;;;5062264;28;20282;-68
2021/11/06 06:04:52;;;;;;;3.17;1.97;;;;;;;;;;5055568;28;20533;-67
2021/11/06 06:07:25;;;;;;;2.17;1.90;;;;;;;;;;5046493;28;20209;-68
2021/11/06 06:09:55;;;;;;;2.90;2.13;;;;;;;;;;5059776;28;20337;-68
2021/11/06 06:12:25;;;;;;;2.23;1.97;;;;;;;;;;5063056;28;20622;-68
2021/11/06 06:14:56;;;;;;;2.45;2.22;;;;;;;;;;5060485;28;20429;-67
2021/11/06 06:17:25;;;;;;;2.27;2.07;;;;;;;;;;5064026;28;20210;-67
2021/11/06 06:19:59;;;;;;;2.53;2.00;;;;;;;;;;5055705;28;20214;-67
2021/11/06 06:22:30;;;;;;;2.07;1.77;;;;;;;;;;5044855;28;20432;-68
2021/11/06 06:24:59;;;;;;;2.30;1.80;;;;;;;;;;5052600;28;20187;-67
2021/11/06 06:27:38;;;;;;;3.70;2.10;;;;;;;;;;5057270;28;20201;-67
2021/11/06 06:30:07;;;;;;;3.00;2.10;;;;;;;;;;5046416;28;20196;-68
2021/11/06 06:32:40;;;;;;;2.60;1.90;;;;;;;;;;5050487;28;20205;-67
2021/11/06 06:35:13;;;;;;;2.13;1.80;;;;;;;;;;5054443;28;20322;-66
2021/11/06 06:37:50;;;;;;;1.60;1.50;;;;;;;;;;5053750;28;20205;-66
2021/11/06 06:40:20;;;;;;;2.97;2.10;;;;;;;;;;5063855;28;20197;-65
2021/11/06 06:42:51;;;;;;;2.70;1.90;;;;;;;;;;5060557;28;20238;-65
2021/11/06 06:45:22;;;;;;;2.37;1.80;;;;;;;;;;5058851;28;20206;-66
2021/11/06 06:47:54;;;;;;;3.47;1.87;;;;;;;;;;5062321;28;20205;-66
2021/11/06 06:50:25;;;;;;;2.30;2.10;;;;;;;;;;5066694;28;20194;-68
2021/11/06 06:52:57;;;;;;;2.40;2.00;;;;;;;;;;5060290;28;20522;-69
2021/11/06 06:55:28;;;;;;;2.37;2.17;;;;;;;;;;5050054;28;20281;-67
2021/11/06 06:58:00;;;;;;;2.80;2.43;;;;;;;;;;5056805;28;20217;-67
2021/11/06 07:00:30;;;;;;;2.43;2.10;;;;;;;;;;5049847;28;20202;-67
2021/11/06 07:02:59;;;;;;;4.80;2.00;;;;;;;;;;5044197;28;20232;-67
2021/11/06 07:05:31;;;;;;;3.77;1.80;;;;;;;;;;5061524;28;20507;-68
2021/11/06 07:08:03;;;;;;;2.57;2.13;;;;;;;;;;5010885;28;20222;-68
2021/11/06 07:10:33;;;;;;;2.63;1.90;;;;;;;;;;5062293;28;20727;-67
2021/11/06 07:13:05;;;;;;;2.10;1.90;;;;;;;;;;5063866;28;20589;-67
2021/11/06 07:15:50;;;;;;;2.60;2.03;;;;;;;;;;5046607;28;20302;-67
2021/11/06 07:18:20;;;;;;;3.93;2.20;;;;;;;;;;5035811;28;20194;-68
2021/11/06 07:20:52;;;;;;;4.37;2.20;;;;;;;;;;5042672;28;20201;-67
2021/11/06 07:23:24;;;;;;;2.90;2.00;;;;;;;;;;5061666;28;20222;-68
2021/11/06 07:25:59;;;;;;;2.70;2.07;;;;;;;;;;5047805;28;20213;-66
2021/11/06 07:28:33;;;;;;;2.80;2.13;;;;;;;;;;5061413;28;20220;-66
2021/11/06 07:31:04;;;;;;;2.20;1.97;;;;;;;;;;5044469;28;20222;-68
2021/11/06 07:33:33;;;;;;;4.27;2.17;;;;;;;;;;5057033;28;20190;-68
2021/11/06 07:36:05;;;;;;;3.27;2.50;;;;;;;;;;5041881;28;20250;-66
2021/11/06 07:38:39;;;;;;;2.83;2.37;;;;;;;;;;5047727;28;20213;-66
2021/11/06 07:41:10;;;;;;;2.30;1.90;;;;;;;;;;5039573;28;20289;-67
2021/11/06 07:43:42;;;;;;;3.27;2.17;;;;;;;;;;5042539;28;20245;-66
2021/11/06 07:46:14;;;;;;;3.17;2.13;;;;;;;;;;5038543;28;20210;-67
2021/11/06 07:48:45;;;;;;;2.73;2.10;;;;;;;;;;5030926;28;20202;-67
2021/11/06 07:51:16;;;;;;;3.03;2.00;;;;;;;;;;5038774;28;20253;-67
2021/11/06 07:53:50;;;;;;;3.70;2.10;;;;;;;;;;5031111;28;20206;-67
2021/11/06 07:56:20;;;;;;;3.10;2.47;;;;;;;;;;5030276;28;20648;-68
2021/11/06 07:58:51;;;;;;;2.50;2.10;;;;;;;;;;5047439;28;20206;-68
2021/11/06 08:01:22;;;;;;;3.10;2.00;;;;;;;;;;5013519;28;20290;-66
2021/11/06 08:03:51;;;;;;;4.03;2.23;;;;;;;;;;5047338;28;20942;-71
2021/11/06 08:06:21;;;;;;;3.90;2.40;;;;;;;;;;5023834;28;20218;-66
2021/11/06 08:08:52;;;;;;;3.63;2.23;;;;;;;;;;5043943;28;20645;-66
2021/11/06 08:11:22;;;;;;;3.80;2.23;;;;;;;;;;5041201;28;20790;-66
2021/11/06 08:13:57;;;;;;;4.23;2.27;;;;;;;;;;5048686;28;20313;-66
2021/11/06 08:16:38;;;;;;;2.50;2.10;;;;;;;;;;5029799;28;20218;-66
2021/11/06 08:19:08;;;;;;;2.73;2.20;;;;;;;;;;5023564;28;20238;-66
2021/11/06 08:21:37;;;;;;;2.27;1.93;;;;;;;;;;5042686;28;20206;-66
2021/11/06 08:24:07;;;;;;;2.90;2.00;;;;;;;;;;5045033;28;20218;-66
2021/11/06 08:26:37;;;;;;;2.40;2.10;;;;;;;;;;5013563;28;20689;-66
2021/11/06 08:29:08;;;;;;;3.30;2.27;;;;;;;;;;5043248;28;20207;-66
2021/11/06 08:31:35;;;;;;;2.80;2.10;;;;;;;;;;5040279;28;20206;-66
2021/11/06 08:34:06;;;;;;;3.40;2.30;;;;;;;;;;5041835;28;20402;-66
2021/11/06 08:36:35;;;;;;;3.30;1.77;;;;;;;;;;5060730;28;20238;-67
2021/11/06 08:39:08;;;;;;;2.53;1.83;;;;;;;;;;5046019;28;20288;-67
2021/11/06 08:41:38;;;;;;;3.13;2.03;;;;;;;;;;5043727;28;20645;-67
2021/11/06 08:44:09;;;;;;;3.20;2.00;;;;;;;;;;5059422;28;20229;-67
2021/11/06 08:46:41;;;;;;;3.47;2.50;;;;;;;;;;5051645;28;20213;-66
2021/11/06 08:49:14;;;;;;;2.73;2.00;;;;;;;;;;5060239;28;20293;-65
2021/11/06 08:51:47;;;;;;;2.87;2.33;;;;;;;;;;5064142;28;20638;-66
2021/11/06 08:54:20;;;;;;;2.73;2.30;;;;;;;;;;5056406;28;20319;-66
2021/11/06 08:56:49;;;;;;;2.60;1.83;;;;;;;;;;5048797;28;20205;-68
2021/11/06 08:59:23;;;;;;;2.70;2.17;;;;;;;;;;5059287;28;20206;-67
2021/11/06 09:01:57;;;;;;;2.73;2.10;;;;;;;;;;5064080;28;20229;-68
2021/11/06 09:04:30;;;;;;;3.33;2.20;;;;;;;;;;5044208;28;20300;-68
2021/11/06 09:07:01;;;;;;;7.27;2.63;;;;;;;;;;5040217;28;20799;-65
2021/11/06 09:09:30;;;;;;;29.17;6.20;;;;;;;;;;5061495;28;20197;-65
2021/11/06 09:12:21;;;;;;;62.97;15.57;;;;;;;;;;5051176;28;20202;-67
2021/11/06 09:15:04;;;;;;;52.40;13.10;;;;;;;;;;5062754;28;20204;-67
2021/11/06 09:17:36;;;;;;;42.10;11.43;;;;;;;;;;5040260;28;20202;-65
2021/11/06 09:20:08;;;;;;;29.70;10.83;;;;;;;;;;5061611;28;20222;-65
2021/11/06 09:22:41;;;;;;;37.37;10.33;;;;;;;;;;5063892;28;20209;-66
2021/11/06 09:25:14;;;;;;;23.97;8.83;;;;;;;;;;5046318;28;20190;-66
2021/11/06 09:27:44;;;;;;;23.33;7.97;;;;;;;;;;5073206;28;20575;-65
2021/11/06 09:30:16;;;;;;;20.83;6.80;;;;;;;;;;5065442;28;20205;-66
2021/11/06 09:32:46;;;;;;;19.33;6.30;;;;;;;;;;5063107;28;20202;-66
2021/11/06 09:35:18;;;;;;;14.70;5.57;;;;;;;;;;5065174;28;20850;-66
2021/11/06 09:37:57;;;;;;;14.17;5.27;;;;;;;;;;5045781;28;20194;-65
2021/11/06 09:40:31;;;;;;;17.20;5.40;;;;;;;;;;5048366;28;20193;-67
2021/11/06 09:43:02;;;;;;;11.63;5.17;;;;;;;;;;5034141;28;20303;-68
2021/11/06 09:45:33;;;;;;;11.80;4.43;;;;;;;;;;5041579;28;20675;-66
2021/11/06 09:48:03;;;;;;;10.37;4.60;;;;;;;;;;5058115;28;20272;-66
2021/11/06 09:50:34;;;;;;;8.57;3.80;;;;;;;;;;5065107;28;20206;-66
2021/11/06 09:53:06;;;;;;;9.40;3.80;;;;;;;;;;5040903;28;20193;-65
2021/11/06 09:55:37;;;;;;;9.10;4.23;;;;;;;;;;5033826;28;20849;-68
2021/11/06 09:58:12;;;;;;;9.20;3.83;;;;;;;;;;5042940;28;20193;-67
2021/11/06 10:00:40;;;;;;;8.70;3.53;;;;;;;;;;5051898;28;20213;-67
2021/11/06 10:03:16;;;;;;;7.37;4.10;;;;;;;;;;5059709;28;20319;-67
2021/11/06 10:05:52;;;;;;;9.87;3.93;;;;;;;;;;5055791;28;20872;-66
2021/11/06 10:08:40;;;;;;;6.23;3.50;;;;;;;;;;5043559;28;20294;-66
2021/11/06 10:11:16;;;;;;;5.07;3.43;;;;;;;;;;5054605;28;20222;-71
2021/11/06 10:14:03;;;;;;;5.43;3.20;;;;;;;;;;5055780;28;20687;-70
2021/11/06 10:16:41;;;;;;;9.37;3.13;;;;;;;;;;5050236;28;20213;-69
2021/11/06 10:19:17;;;;;;;4.43;2.80;;;;;;;;;;5053369;28;20596;-69
2021/11/06 10:22:13;;;;;;;4.40;2.77;;;;;;;;;;5055342;28;20718;-69
2021/11/06 10:24:52;;;;;;;6.63;3.10;;;;;;;;;;5052116;28;20226;-69
2021/11/06 10:27:24;;;;;;;6.57;3.27;;;;;;;;;;5058021;28;20227;-68
2021/11/06 10:30:14;;;;;;;4.10;2.63;;;;;;;;;;5063102;28;20288;-68
2021/11/06 10:32:57;;;;;;;4.27;2.73;;;;;;;;;;5059598;28;20201;-70
2021/11/06 10:35:31;;;;;;;4.30;3.03;;;;;;;;;;5051029;28;20748;-70
2021/11/06 10:38:12;;;;;;;5.77;2.53;;;;;;;;;;5054085;28;20194;-72
2021/11/06 10:40:50;;;;;;;2.40;2.00;;;;;;;;;;5055215;28;20280;-74
2021/11/06 10:43:23;;;;;;;5.43;2.43;;;;;;;;;;5054182;28;20249;-71
2021/11/06 10:45:52;;;;;;;4.47;2.80;;;;;;;;;;5057467;28;20286;-68
2021/11/06 10:48:30;;;;;;;4.53;2.60;;;;;;;;;;5038125;28;20206;-69
2021/11/06 10:51:11;;;;;;;3.03;2.13;;;;;;;;;;5052988;28;20201;-72
2021/11/06 10:53:52;;;;;;;3.57;2.30;;;;;;;;;;5042926;28;20202;-71
2021/11/06 10:56:28;;;;;;;2.93;2.10;;;;;;;;;;5042383;28;20233;-72
2021/11/06 10:59:03;;;;;;;3.90;2.20;;;;;;;;;;5055858;28;20271;-70
2021/11/06 11:01:42;;;;;;;2.70;2.03;;;;;;;;;;5062720;28;20198;-70
2021/11/06 11:04:24;;;;;;;5.40;2.30;;;;;;;;;;5053441;28;20771;-69
2021/11/06 11:07:01;;;;;;;4.50;2.10;;;;;;;;;;5029049;28;20210;-71
2021/11/06 11:09:45;;;;;;;2.30;1.90;;;;;;;;;;5057776;28;20313;-68
2021/11/06 11:12:30;;;;;;;2.87;1.90;;;;;;;;;;5058689;28;20785;-68
2021/11/06 11:15:01;;;;;;;2.67;1.60;;;;;;;;;;5055178;28;20228;-69
2021/11/06 11:17:45;;;;;;;2.93;2.27;;;;;;;;;;5054166;28;20202;-69
2021/11/06 11:20:27;;;;;;;2.07;1.73;;;;;;;;;;5057310;28;20220;-70
2021/11/06 11:23:10;;;;;;;2.97;1.57;;;;;;;;;;5042550;28;20209;-69
2021/11/06 11:26:01;;;;;;;5.40;1.90;;;;;;;;;;5060218;28;20637;-70
2021/11/06 11:28:30;;;;;;;4.67;1.50;;;;;;;;;;5060931;28;20198;-71
2021/11/06 11:31:00;;;;;;;3.40;1.70;;;;;;;;;;5042254;28;20289;-69
2021/11/06 11:33:36;;;;;;;2.23;1.87;;;;;;;;;;5047090;28;20205;-69
2021/11/06 11:36:14;;;;;;;4.33;1.60;;;;;;;;;;5061268;28;20241;-69
2021/11/06 11:38:45;;;;;;;3.47;1.90;;;;;;;;;;5061281;28;20213;-67
2021/11/06 11:41:31;;;;;;;3.73;1.93;;;;;;;;;;5040203;28;20205;-68
2021/11/06 11:44:24;;;;;;;3.53;1.80;;;;;;;;;;5053332;28;20257;-69
2021/11/06 11:47:13;;;;;;;2.43;1.43;;;;;;;;;;5061867;28;20239;-71
2021/11/06 11:49:46;;;;;;;2.20;1.60;;;;;;;;;;5058604;28;20190;-72
2021/11/06 11:52:28;;;;;;;2.60;1.60;;;;;;;;;;5047180;28;20297;-69
2021/11/06 11:55:11;;;;;;;2.97;1.80;;;;;;;;;;5063129;28;20210;-68
2021/11/06 11:57:44;;;;;;;5.57;1.57;;;;;;;;;;5066072;28;20224;-69
2021/11/06 12:00:17;;;;;;;3.22;1.70;;;;;;;;;;5053648;28;20456;-67
2021/11/06 12:03:07;;;;;;;2.80;2.00;;;;;;;;;;5052576;28;21210;-67
2021/11/06 12:05:44;;;;;;;3.37;1.93;;;;;;;;;;5042864;28;20213;-67
2021/11/06 12:08:20;;;;;;;2.43;1.70;;;;;;;;;;5056611;28;20202;-67
2021/11/06 12:11:00;;;;;;;2.40;1.80;;;;;;;;;;5065150;28;20555;-67
2021/11/06 12:13:40;;;;;;;2.60;1.73;;;;;;;;;;5060905;28;20538;-67
2021/11/06 12:16:15;;;;;;;4.15;2.10;;;;;;;;;;5063059;28;20493;-69
2021/11/06 12:18:55;;;;;;;2.50;1.70;;;;;;;;;;5058664;28;20882;-68
2021/11/06 12:21:27;;;;;;;2.10;1.55;;;;;;;;;;5046489;28;20392;-69
2021/11/06 12:24:14;;;;;;;3.07;1.87;;;;;;;;;;5061579;28;20405;-69
2021/11/06 12:26:58;;;;;;;2.90;1.77;;;;;;;;;;5056398;28;20868;-68
2021/11/06 12:29:34;;;;;;;2.17;1.70;;;;;;;;;;5051359;28;20412;-68
2021/11/06 12:32:23;;;;;;;2.58;1.80;;;;;;;;;;5039580;28;20488;-68
2021/11/06 12:34:59;;;;;;;2.80;1.77;;;;;;;;;;5060245;28;20406;-70
2021/11/06 12:37:43;;;;;;;2.35;1.60;;;;;;;;;;5058864;28;20412;-69
2021/11/06 12:40:28;;;;;;;1.73;1.55;;;;;;;;;;5049699;28;20399;-72
2021/11/06 12:43:13;;;;;;;3.05;2.00;;;;;;;;;;5048453;28;20410;-69
2021/11/06 12:45:48;;;;;;;2.85;1.98;;;;;;;;;;5057375;28;20847;-71
2021/11/06 12:48:38;;;;;;;3.03;1.73;;;;;;;;;;5059603;28;20409;-69
2021/11/06 12:51:09;;;;;;;2.58;1.95;;;;;;;;;;5039068;28;20662;-69
2021/11/06 12:53:47;;;;;;;4.28;2.40;;;;;;;;;;5037042;28;20397;-72
2021/11/06 12:56:41;;;;;;;4.28;2.78;;;;;;;;;;5036985;28;20447;-69
2021/11/06 12:59:16;;;;;;;5.35;2.63;;;;;;;;;;5059566;28;20387;-68
2021/11/06 13:01:54;;;;;;;3.55;2.55;;;;;;;;;;5057844;28;20399;-69
2021/11/06 13:04:29;;;;;;;4.68;2.58;;;;;;;;;;5056300;28;20412;-69
2021/11/06 13:07:04;;;;;;;5.07;2.35;;;;;;;;;;5058647;28;20412;-68
2021/11/06 13:09:36;;;;;;;5.30;2.90;;;;;;;;;;5055017;28;20455;-68
2021/11/06 13:12:08;;;;;;;5.35;2.75;;;;;;;;;;5054438;28;20455;-68
2021/11/06 13:14:52;;;;;;;3.77;1.70;;;;;;;;;;5053539;28;20279;-69
2021/11/06 13:17:25;;;;;;;2.87;1.73;;;;;;;;;;5054355;28;20312;-67
2021/11/06 13:20:05;;;;;;;3.30;2.20;;;;;;;;;;5049522;28;20214;-68
2021/11/06 13:22:42;;;;;;;3.53;2.47;;;;;;;;;;5059274;28;20413;-68
2021/11/06 13:25:18;;;;;;;3.08;1.92;;;;;;;;;;5054864;28;20984;-69
2021/11/06 13:27:53;;;;;;;3.35;2.00;;;;;;;;;;5058661;28;20394;-69
2021/11/06 13:30:24;;;;;;;4.22;2.08;;;;;;;;;;5053896;28;20973;-69
2021/11/06 13:33:09;;;;;;;3.17;2.13;;;;;;;;;;5061075;28;20402;-69
2021/11/06 13:36:00;;;;;;;3.38;2.20;;;;;;;;;;5054233;28;20413;-69
2021/11/06 13:38:54;;;;;;;4.03;1.88;;;;;;;;;;5054553;28;21062;-69
2021/11/06 13:41:26;;;;;;;7.18;2.20;;;;;;;;;;5054488;28;20831;-68
2021/11/06 13:44:09;;;;;;;4.40;2.53;;;;;;;;;;5030579;28;20411;-69
2021/11/06 13:46:41;;;;;;;5.63;2.30;;;;;;;;;;5054219;28;20431;-69
2021/11/06 13:49:18;;;;;;;3.30;2.30;;;;;;;;;;5054881;28;20426;-69
2021/11/06 13:51:50;;;;;;;4.03;2.50;;;;;;;;;;5056321;28;20411;-70
2021/11/06 13:54:27;;;;;;;3.17;2.20;;;;;;;;;;5054077;28;20402;-70
2021/11/06 13:57:01;;;;;;;4.97;2.60;;;;;;;;;;5053672;28;20411;-65
2021/11/06 13:59:59;;;;;;;4.25;2.63;;;;;;;;;;5051569;28;20461;-67
2021/11/06 14:02:32;;;;;;;3.90;2.05;;;;;;;;;;5034715;28;20406;-68
2021/11/06 14:05:07;;;;;;;4.95;2.28;;;;;;;;;;5056755;28;20504;-67
2021/11/06 14:07:56;;;;;;;3.90;2.47;;;;;;;;;;5046969;28;20398;-69
2021/11/06 14:10:33;;;;;;;3.38;2.30;;;;;;;;;;5052317;28;20440;-68
2021/11/06 14:13:16;;;;;;;3.15;2.25;;;;;;;;;;5056714;28;20706;-66
2021/11/06 14:15:56;;;;;;;2.92;2.00;;;;;;;;;;5041185;28;20436;-65
2021/11/06 14:18:31;;;;;;;2.70;1.92;;;;;;;;;;5027080;28;20496;-65
2021/11/06 14:21:15;;;;;;;3.47;2.15;;;;;;;;;;5041013;28;20398;-66
2021/11/06 14:24:05;;;;;;;3.53;2.20;;;;;;;;;;5035123;28;20399;-66
2021/11/06 14:26:44;;;;;;;4.45;2.20;;;;;;;;;;5051298;28;20847;-66
2021/11/06 14:29:17;;;;;;;3.50;2.00;;;;;;;;;;5056345;28;20959;-66
2021/11/06 14:31:57;;;;;;;5.53;2.03;;;;;;;;;;5038417;28;20411;-68
2021/11/06 14:34:32;;;;;;;3.30;2.05;;;;;;;;;;5028825;28;20399;-68
2021/11/06 14:37:07;;;;;;;2.60;1.92;;;;;;;;;;5038293;28;20406;-67
2021/11/06 14:39:42;;;;;;;2.90;2.15;;;;;;;;;;5024276;28;20387;-67
2021/11/06 14:42:18;;;;;;;3.30;2.13;;;;;;;;;;5038453;28;20399;-69
2021/11/06 14:44:51;;;;;;;8.10;2.40;;;;;;;;;;5022572;28;20412;-70
2021/11/06 14:47:22;;;;;;;3.22;2.17;;;;;;;;;;5021759;28;20870;-68
2021/11/06 14:50:23;;;;;;;2.72;1.70;;;;;;;;;;5031746;28;20414;-68
2021/11/06 14:53:19;;;;;;;7.20;2.00;;;;;;;;;;5025032;28;20400;-67
2021/11/06 14:55:55;;;;;;;2.70;1.80;;;;;;;;;;5031305;28;20419;-68
2021/11/06 14:58:45;;;;;;;3.20;1.75;;;;;;;;;;5041445;28;20419;-68
2021/11/06 15:01:21;;;;;;;2.63;1.85;;;;;;;;;;5042893;28;20446;-67
2021/11/06 15:03:59;;;;;;;2.92;2.03;;;;;;;;;;5045679;28;20712;-71
2021/11/06 15:06:31;;;;;;;2.47;1.80;;;;;;;;;;5021295;28;20400;-73
2021/11/06 15:09:02;;;;;;;3.75;1.73;;;;;;;;;;5031404;28;20431;-73
2021/11/06 15:11:34;;;;;;;2.33;1.73;;;;;;;;;;5044486;28;20395;-68
2021/11/06 15:14:05;;;;;;;3.47;1.83;;;;;;;;;;5019720;28;20409;-68
2021/11/06 15:16:36;;;;;;;1.77;1.67;;;;;;;;;;5046650;28;20422;-68
2021/11/06 15:19:16;;;;;;;2.75;1.70;;;;;;;;;;5039572;28;20407;-70
2021/11/06 15:21:51;;;;;;;2.00;1.65;;;;;;;;;;5040227;28;20404;-70
2021/11/06 15:24:24;;;;;;;3.25;1.60;;;;;;;;;;5039075;28;20400;-72
2021/11/06 15:26:57;;;;;;;2.05;1.52;;;;;;;;;;5025363;28;20471;-71